Time;durP1;ratioP1;P1;durP2;ratioP2;P2;SDS_P1;SDS_P2;PMS_P1;PMS_P2;Temp;Humidity;BMP_temperature;BMP_pressure;BME280_temperature;BME280_humidity;BME280_pressure;Samples;Min_cycle;Max_cycle;Signal;HPM_P1;HPM_P2
2022/03/13 00:03:05;;;;;;;12.43;9.80;;;;;;;9.99;56.97;101407.56;4734498;30;20068;-79
2022/03/13 00:10:33;;;;;;;12.90;9.18;;;;;;;9.93;56.81;101386.44;4705761;30;20036;-79
2022/03/13 00:13:53;;;;;;;13.52;8.82;;;;;;;9.93;57.20;101396.81;4701677;30;20617;-79
2022/03/13 00:17:21;;;;;;;;;;;;;;;;;;;;;
2022/03/13 00:20:52;;;;;;;;;;;;;;;;;;;;;
2022/03/13 00:24:30;;;;;;;12.05;9.32;;;;;;;9.99;57.29;101397.22;4753696;30;20060;-79
2022/03/13 00:35:27;;;;;;;13.23;9.35;;;;;;;10.19;56.81;101431.25;4697868;30;20491;-79
2022/03/13 00:43:08;;;;;;;;;;;;;;;;;;;;;
2022/03/13 01:03:02;;;;;;;12.23;9.20;;;;;;;9.98;57.71;101392.97;5001915;27;20905;-81
2022/03/13 01:05:27;;;;;;;12.20;9.23;;;;;;;9.96;57.70;101386.22;5002452;28;20038;-81
2022/03/13 01:07:55;;;;;;;11.98;8.90;;;;;;;10.05;57.85;101391.59;5002413;28;20022;-81
2022/03/13 01:10:21;;;;;;;12.35;9.00;;;;;;;10.01;57.85;101389.31;5001972;28;20117;-81
2022/03/13 01:12:51;;;;;;;11.70;9.13;;;;;;;10.00;57.55;101383.31;5002237;28;20378;-81
2022/03/13 01:15:16;;;;;;;13.30;9.98;;;;;;;10.02;57.54;101381.44;5001739;28;20036;-81
2022/03/13 01:17:43;;;;;;;11.40;9.10;;;;;;;10.00;57.95;101388.50;5001756;28;20034;-81
2022/03/13 01:20:17;;;;;;;12.45;8.80;;;;;;;10.01;57.75;101382.38;5001895;28;20034;-82
2022/03/13 01:22:43;;;;;;;13.13;9.52;;;;;;;9.94;57.87;101368.19;5001936;28;20026;-82
2022/03/13 01:25:08;;;;;;;13.00;10.10;;;;;;;9.96;57.85;101370.66;5009391;28;20038;-82
2022/03/13 01:27:35;;;;;;;13.77;10.25;;;;;;;9.94;58.17;101368.19;5021371;28;20362;-82
2022/03/13 01:30:04;;;;;;;12.65;9.80;;;;;;;9.97;58.09;101383.50;5004374;28;20054;-82
2022/03/13 01:32:32;;;;;;;13.05;10.20;;;;;;;9.92;58.21;101380.44;5001377;28;20635;-82
2022/03/13 01:34:58;;;;;;;13.60;10.50;;;;;;;9.87;57.56;101359.19;5006031;28;20068;-82
2022/03/13 01:37:40;;;;;;;12.80;10.18;;;;;;;9.92;58.06;101370.06;5016440;28;20026;-82
2022/03/13 01:40:09;;;;;;;13.65;10.93;;;;;;;9.86;58.43;101360.13;5008958;28;20541;-82
2022/03/13 01:42:35;;;;;;;12.77;10.48;;;;;;;9.87;58.01;101361.78;5008866;28;20253;-82
2022/03/13 01:45:00;;;;;;;15.48;10.57;;;;;;;9.85;58.20;101358.47;4990748;28;20026;-82
2022/03/13 01:47:26;;;;;;;13.15;10.95;;;;;;;9.74;57.92;101335.91;5001403;28;20022;-81
2022/03/13 01:49:52;;;;;;;13.63;10.27;;;;;;;9.83;58.37;101349.97;5001626;28;20026;-82
2022/03/13 01:52:23;;;;;;;14.27;10.90;;;;;;;9.75;58.37;101347.94;4999994;28;20026;-82
2022/03/13 01:54:49;;;;;;;14.07;10.93;;;;;;;9.79;58.42;101340.75;5001529;28;20030;-82
2022/03/13 01:57:17;;;;;;;13.93;11.18;;;;;;;9.77;58.45;101340.06;5001362;28;20033;-82
2022/03/13 01:59:43;;;;;;;13.57;10.77;;;;;;;9.77;58.75;101340.06;5006684;28;20029;-82
2022/03/13 02:02:09;;;;;;;16.00;11.30;;;;;;;9.64;58.78;101324.53;5020707;28;20056;-82
2022/03/13 02:04:34;;;;;;;13.20;10.95;;;;;;;9.71;58.86;101330.13;5020696;28;20541;-82
2022/03/13 02:06:59;;;;;;;15.15;11.13;;;;;;;9.70;58.81;101328.47;5021099;28;20037;-81
2022/03/13 02:09:27;;;;;;;14.52;11.18;;;;;;;9.59;59.03;101311.09;5001925;28;20037;-82
2022/03/13 02:11:53;;;;;;;14.65;11.50;;;;;;;9.58;59.21;101317.19;5000802;28;20105;-81
2022/03/13 02:14:21;;;;;;;15.77;12.00;;;;;;;9.57;59.66;101313.75;4986077;28;20547;-81
2022/03/13 02:16:47;;;;;;;14.65;12.00;;;;;;;9.55;59.74;101320.81;4989295;28;20027;-81
2022/03/13 02:19:14;;;;;;;15.15;12.20;;;;;;;9.48;59.95;101314.41;4986173;28;20058;-81
2022/03/13 02:21:45;;;;;;;14.18;12.00;;;;;;;9.46;60.18;101326.66;4986659;28;20042;-81
2022/03/13 02:24:21;;;;;;;15.23;12.80;;;;;;;9.37;60.13;101322.09;4984434;28;20461;-81
2022/03/13 02:26:56;;;;;;;16.25;13.65;;;;;;;9.37;60.18;101324.69;4992108;28;20037;-82
2022/03/13 02:29:21;;;;;;;16.90;13.63;;;;;;;9.32;60.48;101324.16;5003663;28;20030;-82
2022/03/13 02:31:47;;;;;;;16.15;13.70;;;;;;;9.28;60.23;101328.72;4987773;28;20454;-82
2022/03/13 02:34:14;;;;;;;16.85;13.63;;;;;;;9.14;61.02;101300.38;4988526;28;20034;-81
2022/03/13 02:36:42;;;;;;;16.63;14.05;;;;;;;9.19;61.13;101318.16;5001318;28;20041;-82
2022/03/13 02:39:08;;;;;;;15.75;12.80;;;;;;;9.18;61.44;101321.69;4988820;28;20058;-81
2022/03/13 02:41:34;;;;;;;17.45;13.57;;;;;;;9.16;61.52;101323.53;4983258;28;20072;-81
2022/03/13 02:43:59;;;;;;;15.65;12.93;;;;;;;9.14;61.66;101325.41;4995067;28;20026;-81
2022/03/13 02:46:51;;;;;;;17.95;13.50;;;;;;;9.14;61.74;101322.81;4997594;28;20057;-81
2022/03/13 02:49:19;;;;;;;16.50;13.85;;;;;;;9.03;61.95;101314.03;5006227;28;20026;-81
2022/03/13 02:51:47;;;;;;;16.85;13.70;;;;;;;9.07;61.93;101311.25;4991231;28;20026;-82
2022/03/13 02:54:15;;;;;;;17.17;13.75;;;;;;;9.03;61.85;101319.19;4989208;28;20135;-81
2022/03/13 02:56:41;;;;;;;16.17;13.52;;;;;;;8.97;62.02;101314.44;5006461;28;20034;-81
2022/03/13 02:59:06;;;;;;;16.60;13.70;;;;;;;8.90;62.03;101308.03;5002018;28;20513;-81
2022/03/13 03:01:31;;;;;;;18.10;14.80;;;;;;;8.89;62.50;101306.38;5000010;28;20075;-81
2022/03/13 03:04:00;;;;;;;18.10;14.68;;;;;;;8.94;62.31;101313.81;4996107;28;20062;-81
2022/03/13 03:06:28;;;;;;;18.38;14.88;;;;;;;8.93;62.47;101314.75;4975124;28;20030;-81
2022/03/13 03:08:53;;;;;;;18.35;14.63;;;;;;;8.84;62.58;101292.91;4997679;28;20044;-82
2022/03/13 03:11:19;;;;;;;18.17;15.07;;;;;;;8.91;62.50;101314.84;5000200;28;20010;-81
2022/03/13 03:13:44;;;;;;;18.25;15.18;;;;;;;8.78;62.84;101290.75;5006819;28;20109;-81
2022/03/13 03:16:10;;;;;;;20.27;15.05;;;;;;;8.80;62.76;101296.63;5003441;28;20392;-81
2022/03/13 03:18:35;;;;;;;17.50;15.13;;;;;;;8.76;62.33;101277.88;5001901;28;20037;-81
2022/03/13 03:21:00;;;;;;;19.42;15.35;;;;;;;8.85;62.84;101302.31;4994681;28;20060;-81
2022/03/13 03:23:26;;;;;;;17.60;14.85;;;;;;;8.81;62.68;101306.03;5006476;28;20026;-81
2022/03/13 03:25:51;;;;;;;18.13;14.35;;;;;;;8.74;62.49;101297.03;5005325;28;20025;-81
2022/03/13 03:28:21;;;;;;;18.77;15.25;;;;;;;8.74;62.23;101312.56;5005748;28;20386;-81
2022/03/13 03:30:46;;;;;;;17.85;15.27;;;;;;;8.74;62.62;101307.38;5006666;28;20026;-81
2022/03/13 03:33:12;;;;;;;19.30;15.70;;;;;;;8.66;62.59;101301.88;5006141;28;20488;-82
2022/03/13 03:35:37;;;;;;;17.70;15.50;;;;;;;8.55;62.88;101286.25;5006518;28;20462;-81
2022/03/13 03:38:03;;;;;;;20.13;16.00;;;;;;;8.56;62.93;101288.75;5000554;28;20030;-82
2022/03/13 03:40:30;;;;;;;20.17;15.77;;;;;;;8.45;63.37;101276.50;4986457;28;20058;-81
2022/03/13 03:42:57;;;;;;;19.88;15.75;;;;;;;8.60;63.15;101304.84;4988926;28;20113;-81
2022/03/13 03:45:22;;;;;;;18.60;15.32;;;;;;;8.48;62.82;101286.63;4988070;28;20038;-81
2022/03/13 03:47:48;;;;;;;19.13;15.90;;;;;;;8.52;62.40;101303.63;5001395;28;20030;-82
2022/03/13 03:50:14;;;;;;;18.98;15.95;;;;;;;8.46;62.64;101291.09;4985058;28;20062;-81
2022/03/13 03:52:39;;;;;;;18.65;15.73;;;;;;;8.50;63.38;101300.31;4986787;28;20463;-81
2022/03/13 03:55:06;;;;;;;20.85;16.75;;;;;;;8.42;62.65;101302.53;4996933;28;20503;-82
2022/03/13 03:57:31;;;;;;;19.00;15.82;;;;;;;8.39;63.01;101287.25;5003599;28;20033;-81
2022/03/13 03:59:56;;;;;;;20.08;16.50;;;;;;;8.44;62.72;101295.53;4985249;28;20026;-82
2022/03/13 04:02:22;;;;;;;19.35;16.05;;;;;;;8.46;62.76;101298.84;4993864;28;20079;-82
2022/03/13 04:04:47;;;;;;;21.90;17.77;;;;;;;8.44;62.57;101300.72;5005791;28;20118;-82
2022/03/13 04:07:13;;;;;;;19.83;16.70;;;;;;;8.38;62.76;101295.13;5005483;28;20508;-82
2022/03/13 04:09:39;;;;;;;19.58;16.55;;;;;;;8.43;63.28;101303.38;4986875;28;20059;-81
2022/03/13 04:12:07;;;;;;;22.70;16.98;;;;;;;8.34;63.05;101301.38;4986330;28;20030;-81
2022/03/13 04:14:34;;;;;;;19.55;17.00;;;;;;;8.26;63.15;101291.53;4987426;28;20058;-81
2022/03/13 04:16:59;;;;;;;21.33;17.05;;;;;;;8.36;63.11;101292.59;5000593;28;20359;-82
2022/03/13 04:19:27;;;;;;;22.10;18.10;;;;;;;8.28;62.16;101289.66;4988717;28;20041;-82
2022/03/13 04:21:53;;;;;;;19.95;17.48;;;;;;;8.25;62.46;101279.50;4986335;28;20379;-82
2022/03/13 04:24:18;;;;;;;20.70;17.45;;;;;;;8.27;62.07;101282.84;4985488;28;20033;-81
2022/03/13 04:26:44;;;;;;;20.83;17.83;;;;;;;8.28;62.40;101294.00;4986168;28;20467;-81
2022/03/13 04:29:10;;;;;;;22.10;18.05;;;;;;;8.22;61.53;101290.88;4998157;28;20087;-82
2022/03/13 04:31:40;;;;;;;22.42;18.27;;;;;;;8.25;62.10;101295.03;4985795;28;20026;-81
2022/03/13 04:34:06;;;;;;;22.15;18.05;;;;;;;8.14;61.54;101276.78;4986974;28;20481;-81
2022/03/13 04:36:33;;;;;;;22.10;18.27;;;;;;;8.23;61.76;101296.88;4986867;28;20172;-82
2022/03/13 04:38:59;;;;;;;22.77;18.55;;;;;;;8.18;60.62;101288.59;4987861;28;20045;-81
2022/03/13 04:41:25;;;;;;;22.85;19.17;;;;;;;8.08;61.01;101277.19;4985357;28;20038;-82
2022/03/13 04:43:50;;;;;;;22.55;19.25;;;;;;;8.10;61.27;101275.34;4986734;28;20026;-81
2022/03/13 04:46:16;;;;;;;22.58;18.02;;;;;;;8.13;61.02;101288.06;4984271;28;20027;-81
2022/03/13 04:48:41;;;;;;;23.23;19.48;;;;;;;8.10;61.20;101280.53;4992344;28;20161;-82
2022/03/13 04:51:07;;;;;;;21.88;19.25;;;;;;;8.03;61.16;101274.06;4996729;28;20461;-81
2022/03/13 04:53:32;;;;;;;21.98;19.20;;;;;;;8.14;61.29;101292.28;5004443;28;20029;-81
2022/03/13 04:55:58;;;;;;;22.13;18.70;;;;;;;8.07;60.50;101280.69;5004941;28;20371;-81
2022/03/13 04:58:24;;;;;;;22.40;18.38;;;;;;;8.11;60.54;101292.50;4997330;28;20399;-81
2022/03/13 05:00:50;;;;;;;21.98;18.45;;;;;;;8.06;60.03;101295.38;4982410;28;20083;-81
2022/03/13 05:03:15;;;;;;;23.67;19.77;;;;;;;8.06;60.24;101289.38;4989919;28;20470;-81
2022/03/13 05:05:41;;;;;;;25.98;19.77;;;;;;;8.05;60.41;101288.56;4985469;28;20026;-81
2022/03/13 05:08:13;;;;;;;21.90;18.42;;;;;;;8.06;60.39;101292.78;4985951;28;20026;-81
2022/03/13 05:10:39;;;;;;;22.52;18.88;;;;;;;7.91;60.09;101280.84;4995302;28;20042;-82
2022/03/13 05:13:06;;;;;;;23.77;19.10;;;;;;;7.94;60.71;101284.06;4985416;28;20105;-82
2022/03/13 05:15:32;;;;;;;24.35;20.27;;;;;;;7.99;60.25;101294.94;4988666;28;20507;-82
2022/03/13 05:17:58;;;;;;;24.02;20.13;;;;;;;7.96;61.17;101297.69;5004883;28;20057;-81
2022/03/13 05:20:23;;;;;;;22.45;20.00;;;;;;;7.99;61.57;101307.84;5004590;28;20056;-82
2022/03/13 05:22:48;;;;;;;23.83;20.48;;;;;;;7.90;62.73;101295.50;5004644;28;20079;-83
2022/03/13 05:25:14;;;;;;;23.40;20.25;;;;;;;7.85;62.82;101286.38;5004428;28;20745;-81
2022/03/13 05:27:40;;;;;;;23.30;20.15;;;;;;;7.85;63.15;101292.38;4987351;28;20493;-82
2022/03/13 05:30:07;;;;;;;23.63;19.90;;;;;;;7.76;63.92;101281.81;4985663;28;20049;-82
2022/03/13 05:32:34;;;;;;;24.73;20.48;;;;;;;7.81;64.78;101296.09;4985319;28;20026;-82
2022/03/13 05:35:00;;;;;;;23.95;19.98;;;;;;;7.74;64.72;101289.63;4983047;28;20068;-82
2022/03/13 05:37:25;;;;;;;24.42;20.23;;;;;;;7.67;64.94;101289.19;4984423;28;20458;-81
2022/03/13 05:39:51;;;;;;;22.38;19.58;;;;;;;7.74;65.42;101305.13;5001225;28;20061;-81
2022/03/13 05:42:17;;;;;;;23.63;19.27;;;;;;;7.69;65.07;101299.44;5004150;28;20118;-81
2022/03/13 05:44:42;;;;;;;23.85;19.90;;;;;;;7.66;66.06;101297.03;5001564;28;20116;-80
2022/03/13 05:47:07;;;;;;;22.88;20.27;;;;;;;7.57;65.99;101287.28;5005136;28;20021;-81
2022/03/13 05:49:33;;;;;;;22.70;19.75;;;;;;;7.58;65.96;101291.53;4992892;28;20030;-81
2022/03/13 05:51:59;;;;;;;25.27;20.92;;;;;;;7.38;66.47;101288.41;4991091;28;20061;-81
2022/03/13 05:54:25;;;;;;;23.23;20.25;;;;;;;7.41;66.38;101288.22;4988785;28;20033;-81
2022/03/13 05:56:51;;;;;;;21.75;19.20;;;;;;;7.48;67.04;101298.19;4988262;28;20118;-82
2022/03/13 05:59:16;;;;;;;22.63;19.98;;;;;;;7.42;66.07;101289.88;5000402;28;20032;-81
2022/03/13 06:01:42;;;;;;;25.10;20.73;;;;;;;7.47;66.63;101297.34;5007595;28;20436;-82
2022/03/13 06:04:08;;;;;;;23.45;19.73;;;;;;;7.36;66.22;101292.84;4997247;28;20038;-82
2022/03/13 06:06:34;;;;;;;24.30;20.25;;;;;;;7.42;66.41;101310.53;4988956;28;20055;-81
2022/03/13 06:09:00;;;;;;;24.08;20.08;;;;;;;7.38;66.03;101298.72;4998333;28;20030;-82
2022/03/13 06:11:25;;;;;;;22.40;19.48;;;;;;;7.42;65.73;101304.53;5007317;28;20450;-81
2022/03/13 06:13:51;;;;;;;22.45;19.25;;;;;;;7.37;66.07;101302.22;5007014;28;20453;-82
2022/03/13 06:16:16;;;;;;;22.33;19.58;;;;;;;7.34;66.19;101297.28;4977041;28;20034;-82
2022/03/13 06:18:42;;;;;;;24.08;18.77;;;;;;;7.31;65.96;101292.28;4994430;28;20125;-82
2022/03/13 06:21:07;;;;;;;23.70;19.25;;;;;;;7.37;66.15;101304.00;4999676;28;20069;-80
2022/03/13 06:23:33;;;;;;;25.83;20.23;;;;;;;7.38;65.23;101309.03;5000613;28;20100;-81
2022/03/13 06:25:59;;;;;;;24.88;19.73;;;;;;;7.38;65.60;101303.06;5009791;28;20068;-81
2022/03/13 06:28:26;;;;;;;22.08;19.30;;;;;;;7.28;65.59;101301.94;5004061;28;20034;-82
2022/03/13 06:30:51;;;;;;;21.75;18.92;;;;;;;7.25;66.04;101292.66;4990491;28;20062;-80
2022/03/13 06:33:17;;;;;;;22.17;18.17;;;;;;;7.27;65.36;101289.97;4991236;28;20062;-82
2022/03/13 06:35:42;;;;;;;22.58;19.15;;;;;;;7.22;64.99;101292.00;4982216;28;20031;-82
2022/03/13 06:38:08;;;;;;;21.05;18.42;;;;;;;7.28;64.81;101307.94;4976820;28;20034;-82
2022/03/13 06:40:34;;;;;;;23.80;18.42;;;;;;;7.23;64.94;101294.50;4979962;28;20026;-81
2022/03/13 06:42:59;;;;;;;23.98;18.70;;;;;;;7.30;65.18;101300.94;4968944;28;20023;-81
2022/03/13 06:45:25;;;;;;;22.50;18.08;;;;;;;7.23;65.07;101304.81;5002809;28;20022;-82
2022/03/13 06:47:51;;;;;;;21.35;18.38;;;;;;;7.20;65.29;101294.69;4987670;28;20025;-81
2022/03/13 06:50:18;;;;;;;22.85;19.10;;;;;;;7.16;65.50;101293.19;4990949;28;20370;-81
2022/03/13 06:52:45;;;;;;;19.93;17.20;;;;;;;7.14;64.37;101289.88;4999805;28;20493;-82
2022/03/13 06:55:13;;;;;;;20.65;17.90;;;;;;;7.24;64.78;101306.47;4995566;28;20075;-81
2022/03/13 06:57:40;;;;;;;21.10;17.83;;;;;;;7.28;64.69;101313.09;5007259;28;20419;-82
2022/03/13 07:00:06;;;;;;;22.42;17.52;;;;;;;7.26;65.23;101316.69;4997332;28;20131;-83
2022/03/13 07:02:32;;;;;;;22.60;17.55;;;;;;;7.24;64.84;101310.81;5001417;28;20061;-81
2022/03/13 07:04:57;;;;;;;22.60;18.05;;;;;;;7.26;63.94;101314.13;4987154;28;20030;-80
2022/03/13 07:07:22;;;;;;;20.17;17.38;;;;;;;7.23;63.96;101304.81;4988356;28;20778;-81
2022/03/13 07:09:49;;;;;;;20.08;17.75;;;;;;;7.25;64.41;101297.81;4998380;28;20026;-82
2022/03/13 07:12:14;;;;;;;23.13;17.60;;;;;;;7.27;64.32;101301.13;4979250;28;20030;-81
2022/03/13 07:14:44;;;;;;;21.90;17.70;;;;;;;7.23;63.83;101310.00;4968808;28;20031;-82
2022/03/13 07:17:09;;;;;;;21.70;17.60;;;;;;;7.23;64.56;101299.66;4968166;28;20034;-82
2022/03/13 07:19:35;;;;;;;20.98;17.13;;;;;;;7.23;64.85;101310.00;4972025;28;20096;-82
2022/03/13 07:22:00;;;;;;;22.00;18.20;;;;;;;7.22;64.95;101305.72;4978587;28;20033;-82
2022/03/13 07:24:25;;;;;;;20.10;16.98;;;;;;;7.27;65.21;101306.28;4974335;28;20062;-82
2022/03/13 07:26:51;;;;;;;22.10;17.02;;;;;;;7.10;65.28;101283.25;4967086;28;20383;-82
2022/03/13 07:29:16;;;;;;;20.25;16.83;;;;;;;7.16;64.68;101298.34;4966445;28;20038;-82
2022/03/13 07:31:41;;;;;;;19.65;16.10;;;;;;;7.25;65.00;101308.13;4967020;28;20058;-82
2022/03/13 07:34:06;;;;;;;21.70;17.30;;;;;;;7.21;65.17;101311.81;4967864;28;20059;-83
2022/03/13 07:36:34;;;;;;;21.63;17.13;;;;;;;7.23;64.37;101315.16;4966391;28;20371;-80
2022/03/13 07:39:00;;;;;;;19.23;16.48;;;;;;;7.24;63.96;101327.13;4968053;28;20030;-80
2022/03/13 07:41:26;;;;;;;22.98;18.02;;;;;;;7.13;63.99;101306.28;4967929;28;20114;-81
2022/03/13 07:43:51;;;;;;;19.23;16.98;;;;;;;7.14;63.29;101308.78;4967416;28;20145;-81
2022/03/13 07:46:16;;;;;;;19.38;16.45;;;;;;;7.20;63.98;101305.00;4972278;28;20083;-81
2022/03/13 07:48:44;;;;;;;19.40;16.08;;;;;;;7.16;63.73;101299.19;4967128;28;20026;-81
2022/03/13 07:51:10;;;;;;;20.88;16.42;;;;;;;7.17;64.46;101297.47;4967928;28;20096;-81
2022/03/13 07:53:36;;;;;;;21.42;16.23;;;;;;;7.16;63.48;101294.03;4964382;28;20425;-81
2022/03/13 07:56:01;;;;;;;19.58;16.23;;;;;;;7.24;64.30;101301.31;4969729;28;20029;-82
2022/03/13 07:58:26;;;;;;;20.38;16.90;;;;;;;7.26;64.02;101304.63;4966443;28;20058;-82
2022/03/13 08:00:52;;;;;;;19.98;15.88;;;;;;;7.27;63.11;101305.44;4976950;28;20520;-81
2022/03/13 08:03:25;;;;;;;19.63;15.90;;;;;;;7.29;62.83;101304.47;4985692;28;20164;-81
2022/03/13 08:05:52;;;;;;;19.90;15.38;;;;;;;7.32;62.51;101313.75;4986198;28;20038;-81
2022/03/13 08:08:17;;;;;;;21.27;16.50;;;;;;;7.28;62.94;101307.94;4967098;28;20038;-81
2022/03/13 08:10:43;;;;;;;19.67;15.88;;;;;;;7.36;62.98;101310.91;4964584;28;20035;-81
2022/03/13 08:13:08;;;;;;;19.65;16.17;;;;;;;7.32;62.39;101293.94;4965363;28;20482;-82
2022/03/13 08:15:34;;;;;;;19.40;16.35;;;;;;;7.40;62.51;101296.91;4974803;28;20040;-81
2022/03/13 08:17:59;;;;;;;19.67;16.05;;;;;;;7.47;62.83;101307.69;4996883;28;20470;-80
2022/03/13 08:20:24;;;;;;;18.13;15.32;;;;;;;7.42;61.91;101300.19;4983101;28;20030;-81
2022/03/13 08:22:50;;;;;;;19.77;15.77;;;;;;;7.36;61.22;101290.25;4984400;28;20072;-81
2022/03/13 08:25:18;;;;;;;18.88;15.32;;;;;;;7.45;61.43;101294.88;4983086;28;20058;-81
2022/03/13 08:27:44;;;;;;;19.48;15.85;;;;;;;7.43;60.31;101294.13;4965706;28;20038;-82
2022/03/13 08:30:11;;;;;;;20.05;15.93;;;;;;;7.42;61.39;101284.72;4968889;28;20045;-81
2022/03/13 08:32:38;;;;;;;18.70;15.52;;;;;;;7.45;60.87;101302.63;4965952;28;20096;-80
2022/03/13 08:35:04;;;;;;;19.17;15.60;;;;;;;7.42;61.08;101287.31;4970493;28;20112;-80
2022/03/13 08:37:29;;;;;;;19.25;15.10;;;;;;;7.43;60.79;101301.84;4976775;28;20156;-80
2022/03/13 08:39:55;;;;;;;20.05;15.68;;;;;;;7.37;60.49;101276.44;4978946;28;20027;-81
2022/03/13 08:42:20;;;;;;;17.45;15.10;;;;;;;7.44;60.78;101288.03;4966159;28;20026;-83
2022/03/13 08:44:45;;;;;;;19.90;16.35;;;;;;;7.45;60.27;101289.72;4967461;28;20477;-80
2022/03/13 08:47:10;;;;;;;20.27;16.02;;;;;;;7.48;60.48;101285.28;4964823;28;20035;-81
2022/03/13 08:49:36;;;;;;;18.42;14.48;;;;;;;7.51;59.88;101293.63;4983291;28;20113;-81
2022/03/13 08:52:01;;;;;;;21.17;15.70;;;;;;;7.48;60.55;101282.69;5004822;28;20029;-81
2022/03/13 08:54:27;;;;;;;18.40;15.05;;;;;;;7.51;59.40;101282.50;5001070;28;20022;-80
2022/03/13 08:56:52;;;;;;;20.92;16.23;;;;;;;7.48;60.03;101278.34;4985475;28;20088;-82
2022/03/13 08:59:21;;;;;;;19.35;15.52;;;;;;;7.53;59.38;101280.66;4977536;28;20031;-81
2022/03/13 09:01:49;;;;;;;;;;;;;;;7.70;59.93;101291.59;4966079;28;20486;-81
2022/03/13 09:04:15;;;;;;;19.88;15.35;;;;;;;7.67;59.64;101283.19;4965860;28;19925;-81
2022/03/13 09:06:43;;;;;;;20.13;15.70;;;;;;;7.73;59.64;101282.81;4968227;28;20031;-80
2022/03/13 09:09:09;;;;;;;20.95;16.77;;;;;;;7.78;59.81;101275.63;4971652;28;20111;-80
2022/03/13 09:11:35;;;;;;;19.08;15.68;;;;;;;7.94;59.07;101289.22;4964213;28;20523;-81
2022/03/13 09:14:00;;;;;;;20.13;15.25;;;;;;;8.03;58.69;101284.41;4983385;28;20034;-81
2022/03/13 09:16:26;;;;;;;20.25;16.10;;;;;;;8.00;57.49;101269.94;4995720;28;20092;-80
2022/03/13 09:18:53;;;;;;;20.48;15.43;;;;;;;8.11;57.27;101277.00;5005079;28;20500;-80
2022/03/13 09:21:18;;;;;;;19.85;15.63;;;;;;;8.14;56.55;101269.03;5004758;28;20030;-81
2022/03/13 09:23:43;;;;;;;19.17;15.30;;;;;;;8.20;56.73;101266.06;5005788;28;20342;-81
2022/03/13 09:26:09;;;;;;;20.40;16.23;;;;;;;8.31;57.48;101268.78;4991147;28;20523;-81
2022/03/13 09:28:34;;;;;;;20.45;15.70;;;;;;;8.45;57.10;101279.09;5008206;28;20056;-81
2022/03/13 09:31:00;;;;;;;18.55;15.02;;;;;;;8.49;56.17;101272.81;5006845;28;20110;-81
2022/03/13 09:33:27;;;;;;;20.60;15.75;;;;;;;8.57;55.98;101261.94;5008304;28;20054;-80
2022/03/13 09:35:52;;;;;;;23.00;16.65;;;;;;;8.71;56.67;101266.19;5008290;28;20049;-81
2022/03/13 09:38:18;;;;;;;21.90;15.88;;;;;;;8.81;56.66;101267.25;4982490;28;20390;-81
2022/03/13 09:40:43;;;;;;;21.27;15.32;;;;;;;8.88;55.11;101265.06;4969115;28;20501;-82
2022/03/13 09:43:09;;;;;;;19.23;15.30;;;;;;;8.98;55.26;101272.09;4968617;28;20027;-81
2022/03/13 09:45:34;;;;;;;20.02;15.45;;;;;;;8.98;55.45;101254.00;4980238;28;20107;-81
2022/03/13 09:48:05;;;;;;;20.65;16.02;;;;;;;9.19;55.50;101269.00;4988722;28;20478;-79
2022/03/13 09:50:31;;;;;;;21.13;15.90;;;;;;;9.31;55.12;101270.75;4980736;28;20061;-80
2022/03/13 09:52:56;;;;;;;20.73;16.33;;;;;;;9.46;54.98;101261.91;4969099;28;20092;-82
2022/03/13 09:55:21;;;;;;;19.67;15.57;;;;;;;9.57;54.04;101271.50;4968528;28;20035;-82
2022/03/13 09:57:48;;;;;;;20.45;16.33;;;;;;;9.70;54.34;101263.72;4968414;28;20096;-82
2022/03/13 10:00:16;;;;;;;20.42;15.75;;;;;;;9.79;54.35;101255.28;4968863;28;20109;-82
2022/03/13 10:02:43;;;;;;;20.95;16.30;;;;;;;9.96;53.64;101262.66;4987627;28;20042;-82
2022/03/13 10:05:13;;;;;;;21.20;15.93;;;;;;;10.13;53.51;101278.75;4987937;28;20037;-82
2022/03/13 10:08:02;;;;;;;18.83;15.40;;;;;;;10.24;53.73;101271.06;4986310;28;20478;-81
2022/03/13 10:10:29;;;;;;;19.98;15.85;;;;;;;10.37;52.54;101277.00;4976437;28;20027;-83
2022/03/13 10:12:55;;;;;;;22.80;15.80;;;;;;;10.39;52.42;101259.59;4968220;28;20043;-83
2022/03/13 10:15:20;;;;;;;19.88;16.00;;;;;;;10.50;52.74;101261.38;4972597;28;20038;-82
2022/03/13 10:17:48;;;;;;;19.88;16.27;;;;;;;10.69;51.81;101255.66;4968081;28;20023;-82
2022/03/13 10:20:16;;;;;;;19.15;15.38;;;;;;;10.80;51.99;101253.06;4968577;28;20042;-82
2022/03/13 10:22:44;;;;;;;18.70;14.82;;;;;;;10.86;51.21;101258.63;4968555;28;20285;-82
2022/03/13 10:25:11;;;;;;;20.80;16.25;;;;;;;10.90;51.62;101238.47;4970817;28;20045;-82
2022/03/13 10:27:37;;;;;;;20.88;16.25;;;;;;;11.12;51.15;101261.81;4971238;28;20046;-82
2022/03/13 10:30:08;;;;;;;18.80;15.43;;;;;;;11.24;51.76;101256.59;4968357;28;20034;-83
2022/03/13 10:32:34;;;;;;;18.98;15.38;;;;;;;11.27;49.88;101252.00;4979740;28;20027;-83
2022/03/13 10:35:01;;;;;;;18.65;15.05;;;;;;;11.33;50.80;101261.09;4969228;28;20466;-84
2022/03/13 10:37:40;;;;;;;25.63;17.02;;;;;;;11.43;51.84;101246.47;4983672;28;20160;-81
2022/03/13 10:40:08;;;;;;;21.75;15.95;;;;;;;11.54;51.06;101249.03;4968670;28;20051;-84
2022/03/13 10:42:44;;;;;;;20.77;16.53;;;;;;;11.68;51.40;101243.56;4970577;28;20374;-82
2022/03/13 10:45:15;;;;;;;19.75;15.75;;;;;;;11.77;50.84;101244.63;4987505;28;20038;-82
2022/03/13 10:47:40;;;;;;;21.20;16.98;;;;;;;11.82;48.80;101233.88;4983236;28;20466;-83
2022/03/13 10:50:06;;;;;;;20.00;16.23;;;;;;;11.90;49.94;101234.09;4974146;28;20033;-82
2022/03/13 10:52:40;;;;;;;24.90;20.98;;;;;;;11.98;50.36;101225.66;4995085;28;20045;-81
2022/03/13 10:55:24;;;;;;;19.48;16.27;;;;;;;12.09;50.36;101231.63;4970116;28;20475;-81
2022/03/13 10:57:55;;;;;;;21.73;16.20;;;;;;;12.16;49.80;101219.81;4966911;28;20359;-81
2022/03/13 11:00:23;;;;;;;21.08;16.17;;;;;;;12.34;50.30;101221.84;4967736;28;20401;-82
2022/03/13 11:02:52;;;;;;;20.95;16.30;;;;;;;12.46;49.97;101218.22;4981056;28;20482;-82
2022/03/13 11:05:17;;;;;;;22.45;16.70;;;;;;;12.45;49.05;101203.56;4987002;28;20091;-81
2022/03/13 11:07:42;;;;;;;20.30;16.33;;;;;;;12.58;47.99;101214.59;4971793;28;20527;-81
2022/03/13 11:10:10;;;;;;;19.67;16.52;;;;;;;12.62;48.16;101221.19;4970986;28;20034;-81
2022/03/13 11:12:37;;;;;;;18.67;15.77;;;;;;;12.74;47.50;101209.75;4976311;28;20372;-81
2022/03/13 11:15:03;;;;;;;22.05;16.48;;;;;;;12.75;47.64;101216.59;4968076;28;20055;-81
2022/03/13 11:17:32;;;;;;;19.45;15.32;;;;;;;12.84;48.30;101219.38;4989049;28;20065;-81
2022/03/13 11:19:59;;;;;;;19.88;15.75;;;;;;;12.90;48.47;101213.63;4999288;28;20399;-82
2022/03/13 11:22:26;;;;;;;18.92;14.45;;;;;;;13.01;48.75;101216.97;4981547;28;20080;-81
2022/03/13 11:24:57;;;;;;;17.77;13.98;;;;;;;13.07;48.72;101210.41;4966867;28;20478;-82
2022/03/13 11:27:27;;;;;;;15.82;13.38;;;;;;;13.19;47.78;101206.78;4967953;28;20039;-81
2022/03/13 11:29:54;;;;;;;16.90;13.98;;;;;;;13.21;48.13;101197.06;4966386;28;20489;-81
2022/03/13 11:32:46;;;;;;;17.88;14.50;;;;;;;13.39;47.80;101199.03;4967512;28;20109;-82
2022/03/13 11:35:14;;;;;;;17.15;14.25;;;;;;;13.48;47.11;101203.44;4967470;28;20060;-81
2022/03/13 11:37:41;;;;;;;18.85;13.65;;;;;;;13.58;47.66;101201.66;4967449;28;20114;-81
2022/03/13 11:40:09;;;;;;;18.70;12.95;;;;;;;13.66;47.17;101201.81;4973732;28;20038;-82
2022/03/13 11:42:44;;;;;;;17.33;12.35;;;;;;;13.79;47.92;101198.94;4986483;28;20100;-81
2022/03/13 11:45:34;;;;;;;17.02;12.73;;;;;;;13.79;47.89;101184.13;4984347;28;20117;-82
2022/03/13 11:48:13;;;;;;;17.27;12.82;;;;;;;13.91;47.60;101190.00;4983701;28;20084;-83
2022/03/13 11:50:52;;;;;;;15.00;12.35;;;;;;;14.03;47.48;101185.47;4994183;28;20053;-83
2022/03/13 11:53:23;;;;;;;15.30;11.90;;;;;;;14.06;46.68;101187.81;5005880;28;20385;-83
2022/03/13 11:56:26;;;;;;;18.92;13.38;;;;;;;14.11;47.39;101175.19;4976220;28;20046;-81
2022/03/13 11:58:54;;;;;;;15.18;12.38;;;;;;;14.17;46.64;101169.41;4976025;28;20289;-82
2022/03/13 12:01:29;;;;;;;15.32;12.80;;;;;;;14.22;46.92;101175.03;4985852;28;20046;-83